createdAt,value
2022-08-17T00:00:36.909Z,21.80
2022-08-17T00:03:17.798Z,21.70
2022-08-17T00:05:49.408Z,21.70
2022-08-17T00:08:38.562Z,21.70
2022-08-17T00:11:11.171Z,21.70
2022-08-17T00:14:02.030Z,21.70
2022-08-17T00:16:53.464Z,21.70
2022-08-17T00:19:25.594Z,21.70
2022-08-17T00:22:34.061Z,21.70
2022-08-17T00:24:49.484Z,21.70
2022-08-17T00:27:19.934Z,21.70
2022-08-17T00:29:49.013Z,21.70
2022-08-17T00:33:14.164Z,21.60
2022-08-17T00:35:09.963Z,21.60
2022-08-17T00:37:38.900Z,21.60
2022-08-17T00:40:10.178Z,21.60
2022-08-17T00:42:58.976Z,21.60
2022-08-17T00:45:28.421Z,21.50
2022-08-17T00:47:57.367Z,21.50
2022-08-17T00:50:26.599Z,21.60
2022-08-17T00:52:57.708Z,21.50
2022-08-17T00:55:27.984Z,21.60
2022-08-17T00:58:02.597Z,21.60
2022-08-17T01:00:35.637Z,21.60
2022-08-17T01:03:08.973Z,21.60
2022-08-17T01:05:42.314Z,21.60
2022-08-17T01:08:14.744Z,21.60
2022-08-17T01:10:59.457Z,21.60
2022-08-17T01:13:40.712Z,21.60
2022-08-17T01:16:17.390Z,21.50
2022-08-17T01:18:49.424Z,21.50
2022-08-17T01:21:26.030Z,21.50
2022-08-17T01:23:56.971Z,21.50
2022-08-17T01:26:26.033Z,21.40
2022-08-17T01:28:56.034Z,21.40
2022-08-17T01:31:29.229Z,21.40
2022-08-17T01:33:59.778Z,21.40
2022-08-17T01:36:31.530Z,21.40
2022-08-17T01:39:01.868Z,21.40
2022-08-17T01:41:31.289Z,21.40
2022-08-17T01:44:03.321Z,21.40
2022-08-17T01:46:35.087Z,21.40
2022-08-17T01:49:07.980Z,21.30
2022-08-17T01:51:37.214Z,21.30
2022-08-17T01:54:10.377Z,21.30
2022-08-17T01:56:47.842Z,21.30
2022-08-17T01:59:17.049Z,21.30
2022-08-17T02:01:46.947Z,21.30
2022-08-17T02:04:16.874Z,21.30
2022-08-17T02:06:53.715Z,21.30
2022-08-17T02:09:27.160Z,21.30
2022-08-17T02:12:39.444Z,21.30
2022-08-17T02:14:53.278Z,21.30
2022-08-17T02:17:22.370Z,21.30
2022-08-17T02:19:51.418Z,21.30
2022-08-17T02:22:20.959Z,21.30
2022-08-17T02:25:00.319Z,21.30
2022-08-17T02:27:31.208Z,21.30
2022-08-17T02:30:00.204Z,21.20
2022-08-17T02:32:29.632Z,21.20
2022-08-17T02:34:58.506Z,21.20
2022-08-17T02:37:27.974Z,21.10
2022-08-17T02:39:59.817Z,21.10
2022-08-17T02:42:31.715Z,21.10
2022-08-17T02:45:00.691Z,21.00
2022-08-17T02:47:30.033Z,21.00
2022-08-17T02:49:59.092Z,21.00
2022-08-17T02:52:41.937Z,21.00
2022-08-17T02:55:16.631Z,21.00
2022-08-17T02:57:46.032Z,21.00
2022-08-17T03:00:18.359Z,20.90
2022-08-17T03:02:47.975Z,20.90
2022-08-17T03:05:22.294Z,20.90
2022-08-17T03:07:52.078Z,20.90
2022-08-17T03:10:24.868Z,20.90
2022-08-17T03:12:56.230Z,20.90
2022-08-17T03:15:29.085Z,20.90
2022-08-17T03:17:58.633Z,20.90
2022-08-17T03:20:29.219Z,20.90
2022-08-17T03:23:01.995Z,20.90
2022-08-17T03:25:35.843Z,20.90
2022-08-17T03:28:07.070Z,20.80
2022-08-17T03:30:54.825Z,20.80
2022-08-17T03:33:24.279Z,20.80
2022-08-17T03:35:53.855Z,20.80
2022-08-17T03:38:23.332Z,20.80
2022-08-17T03:40:57.338Z,20.80
2022-08-17T03:43:30.361Z,20.30
2022-08-17T03:46:32.457Z,20.80
2022-08-17T03:49:23.800Z,20.80
2022-08-17T03:52:10.276Z,20.90
2022-08-17T03:54:57.108Z,20.90
2022-08-17T03:57:28.415Z,20.90
2022-08-17T04:00:17.351Z,20.90
2022-08-17T04:02:46.805Z,20.90
2022-08-17T04:05:16.355Z,20.90
2022-08-17T04:07:45.754Z,20.90
2022-08-17T04:10:14.938Z,20.90
2022-08-17T04:12:50.852Z,21.00
2022-08-17T04:15:20.290Z,21.00
2022-08-17T04:17:49.348Z,21.00
2022-08-17T04:20:20.020Z,21.00
2022-08-17T04:22:59.586Z,21.10
2022-08-17T04:25:29.815Z,21.10
2022-08-17T04:28:01.005Z,21.10
2022-08-17T04:30:32.296Z,21.20
2022-08-17T04:33:24.226Z,21.20
2022-08-17T04:35:55.820Z,21.30
2022-08-17T04:38:27.953Z,21.30
2022-08-17T04:41:15.440Z,21.40
2022-08-17T04:43:47.099Z,21.40
2022-08-17T04:46:25.112Z,21.50
2022-08-17T04:48:56.229Z,21.50
2022-08-17T04:51:28.173Z,21.60
2022-08-17T04:53:59.778Z,21.70
2022-08-17T04:56:30.083Z,21.70
2022-08-17T04:59:04.969Z,21.80
2022-08-17T05:01:36.705Z,21.90
2022-08-17T05:04:33.283Z,22.00
2022-08-17T05:06:59.364Z,22.10
2022-08-17T05:09:29.478Z,22.20
2022-08-17T05:12:02.639Z,22.30
2022-08-17T05:14:33.966Z,22.40
2022-08-17T05:17:07.170Z,22.50
2022-08-17T05:19:41.288Z,22.60
2022-08-17T05:22:10.399Z,22.70
2022-08-17T05:24:43.748Z,22.70
2022-08-17T05:27:24.575Z,22.80
2022-08-17T05:29:59.847Z,22.90
2022-08-17T05:32:48.325Z,23.00
2022-08-17T05:35:17.431Z,23.00
2022-08-17T05:37:46.338Z,23.20
2022-08-17T05:40:15.814Z,23.20
2022-08-17T05:42:44.856Z,23.30
2022-08-17T05:45:17.080Z,23.40
2022-08-17T05:48:07.466Z,23.50
2022-08-17T05:50:49.166Z,23.60
2022-08-17T05:53:24.377Z,23.70
2022-08-17T05:56:04.101Z,23.80
2022-08-17T05:58:39.323Z,23.90
2022-08-17T06:01:19.217Z,24.00
2022-08-17T06:03:55.340Z,24.10
2022-08-17T06:06:40.206Z,24.20
2022-08-17T06:09:24.797Z,24.30
2022-08-17T06:12:01.570Z,24.40
2022-08-17T06:14:51.341Z,24.50
2022-08-17T06:17:27.333Z,24.60
2022-08-17T06:19:59.908Z,24.70
2022-08-17T06:22:34.380Z,24.80
2022-08-17T06:25:10.118Z,24.90
2022-08-17T06:27:45.029Z,25.00
2022-08-17T06:30:17.286Z,25.10
2022-08-17T06:32:50.668Z,25.10
2022-08-17T06:35:30.125Z,25.20
2022-08-17T06:38:09.658Z,25.30
2022-08-17T06:41:21.911Z,25.40
2022-08-17T06:44:04.631Z,25.50
2022-08-17T06:46:39.554Z,25.60
2022-08-17T06:49:22.110Z,25.70
2022-08-17T06:51:57.851Z,25.80
2022-08-17T06:54:36.952Z,25.90
2022-08-17T06:57:15.376Z,26.00
2022-08-17T06:59:55.405Z,26.00
2022-08-17T07:02:52.589Z,26.10
2022-08-17T07:05:26.922Z,26.30
2022-08-17T07:08:04.291Z,26.40
2022-08-17T07:10:44.207Z,26.50
2022-08-17T07:13:25.924Z,26.50
2022-08-17T07:16:00.567Z,26.60
2022-08-17T07:18:33.363Z,26.70
2022-08-17T07:21:14.180Z,26.80
2022-08-17T07:24:02.305Z,26.90
2022-08-17T07:26:31.315Z,27.00
2022-08-17T07:29:01.013Z,27.10
2022-08-17T07:31:48.169Z,27.20
2022-08-17T07:34:16.883Z,27.30
2022-08-17T07:36:47.274Z,27.40
2022-08-17T07:39:28.879Z,27.50
2022-08-17T07:42:03.375Z,27.60
2022-08-17T07:44:52.671Z,27.70
2022-08-17T07:47:39.165Z,27.80
2022-08-17T07:50:27.896Z,28.00
2022-08-17T07:52:59.398Z,28.20
2022-08-17T07:55:31.742Z,28.30
2022-08-17T07:58:02.058Z,28.40
2022-08-17T08:00:33.065Z,28.60
2022-08-17T08:03:16.747Z,28.80
2022-08-17T08:05:57.870Z,28.90
2022-08-17T08:08:32.579Z,29.10
2022-08-17T08:11:09.855Z,29.30
2022-08-17T08:13:42.845Z,29.40
2022-08-17T08:16:24.587Z,29.60
2022-08-17T08:18:57.528Z,29.70
2022-08-17T08:21:47.968Z,29.90
2022-08-17T08:24:41.683Z,30.00
2022-08-17T08:27:22.414Z,30.10
2022-08-17T08:29:56.797Z,30.20
2022-08-17T08:32:43.116Z,30.30
2022-08-17T08:35:18.512Z,30.40
2022-08-17T08:37:55.822Z,30.60
2022-08-17T08:40:44.601Z,30.60
2022-08-17T08:43:23.814Z,30.80
2022-08-17T08:45:59.001Z,30.90
2022-08-17T08:48:56.837Z,31.00
2022-08-17T08:51:35.534Z,31.10
2022-08-17T08:54:35.982Z,31.20
2022-08-17T08:57:26.826Z,31.40
2022-08-17T09:00:12.925Z,31.60
2022-08-17T09:03:19.475Z,31.70
2022-08-17T09:06:33.291Z,31.90
2022-08-17T09:09:19.279Z,32.00
2022-08-17T09:12:02.850Z,32.20
2022-08-17T09:14:47.202Z,32.30
2022-08-17T09:17:41.340Z,32.40
2022-08-17T09:20:28.130Z,32.50
2022-08-17T09:23:03.564Z,32.70
2022-08-17T09:25:44.407Z,32.80
2022-08-17T09:28:20.591Z,32.90
2022-08-17T09:31:01.882Z,33.00
2022-08-17T09:33:35.387Z,33.10
2022-08-17T09:36:08.718Z,33.10
2022-08-17T09:38:46.551Z,33.20
2022-08-17T09:41:25.953Z,33.30
2022-08-17T09:44:04.061Z,33.50
2022-08-17T09:46:39.072Z,33.50
2022-08-17T09:49:15.309Z,33.60
2022-08-17T09:51:50.283Z,33.70
2022-08-17T09:54:40.864Z,33.80
2022-08-17T09:57:30.456Z,33.80
2022-08-17T10:00:17.384Z,33.90
2022-08-17T10:03:28.455Z,34.10
2022-08-17T10:06:31.899Z,34.20
2022-08-17T10:09:08.728Z,34.30
2022-08-17T10:12:06.283Z,34.50
2022-08-17T10:14:45.014Z,34.50
2022-08-17T10:17:28.155Z,34.60
2022-08-17T10:20:04.404Z,34.70
2022-08-17T10:22:59.275Z,34.70
2022-08-17T10:25:55.021Z,34.70
2022-08-17T10:28:30.243Z,34.70
2022-08-17T10:31:33.305Z,34.80
2022-08-17T10:34:40.360Z,34.90
2022-08-17T10:37:25.346Z,35.00
2022-08-17T10:40:04.159Z,35.00
2022-08-17T10:42:38.116Z,35.10
2022-08-17T10:45:32.197Z,35.20
2022-08-17T10:48:06.861Z,35.20
2022-08-17T10:51:09.229Z,35.40
2022-08-17T10:54:00.656Z,35.50
2022-08-17T10:56:47.743Z,35.60
2022-08-17T10:59:54.838Z,35.70
2022-08-17T11:02:28.366Z,35.80
2022-08-17T11:05:22.470Z,36.00
2022-08-17T11:08:30.740Z,36.20
2022-08-17T11:11:24.075Z,36.60
2022-08-17T11:14:11.373Z,37.00
2022-08-17T11:16:53.447Z,37.50
2022-08-17T11:19:52.866Z,37.90
2022-08-17T11:22:52.936Z,38.30
2022-08-17T11:25:33.028Z,38.50
2022-08-17T11:28:09.417Z,38.90
2022-08-17T11:30:52.330Z,39.00
2022-08-17T11:33:58.291Z,39.10
2022-08-17T11:37:10.285Z,39.20
2022-08-17T11:39:52.887Z,39.30
2022-08-17T11:42:34.678Z,39.40
2022-08-17T11:45:19.544Z,39.40
2022-08-17T11:48:30.827Z,39.30
2022-08-17T11:51:27.256Z,39.20
2022-08-17T11:57:00.918Z,38.90
2022-08-17T11:59:55.707Z,38.80
2022-08-17T12:02:47.368Z,38.60
2022-08-17T12:05:33.140Z,38.40
2022-08-17T12:08:18.732Z,38.30
2022-08-17T12:11:00.007Z,38.30
2022-08-17T12:13:39.332Z,38.20
2022-08-17T12:16:10.252Z,38.20
2022-08-17T12:18:42.182Z,38.20
2022-08-17T12:21:24.929Z,38.10
2022-08-17T12:24:00.443Z,38.00
2022-08-17T12:26:33.599Z,38.00
2022-08-17T12:29:05.145Z,38.10
2022-08-17T12:31:38.195Z,38.10
2022-08-17T12:34:07.230Z,38.20
2022-08-17T12:36:37.589Z,38.20
2022-08-17T12:39:14.095Z,38.30
2022-08-17T12:41:52.462Z,38.30
2022-08-17T12:44:23.608Z,38.30
2022-08-17T12:47:00.672Z,38.30
2022-08-17T12:49:36.327Z,38.30
2022-08-17T12:52:16.364Z,38.30
2022-08-17T12:54:55.610Z,38.40
2022-08-17T12:57:28.106Z,38.60
2022-08-17T13:00:01.056Z,38.70
2022-08-17T13:02:34.076Z,38.80
2022-08-17T13:05:27.774Z,38.90
2022-08-17T13:08:00.803Z,39.10
2022-08-17T13:10:58.146Z,39.30
2022-08-17T13:13:30.092Z,39.50
2022-08-17T13:16:01.023Z,39.60
2022-08-17T13:18:42.099Z,39.60
2022-08-17T13:21:20.161Z,39.60
2022-08-17T13:24:01.977Z,39.60
2022-08-17T13:26:35.717Z,39.50
2022-08-17T13:29:07.929Z,39.50
2022-08-17T13:31:49.802Z,39.20
2022-08-17T13:35:01.652Z,38.90
2022-08-17T13:37:34.069Z,38.30
2022-08-17T13:40:31.715Z,38.00
2022-08-17T13:43:03.531Z,37.70
2022-08-17T13:45:51.587Z,37.40
2022-08-17T13:48:29.936Z,37.00
2022-08-17T13:51:27.841Z,36.60
2022-08-17T13:54:25.899Z,35.90
2022-08-17T13:57:03.748Z,36.00
2022-08-17T13:59:54.992Z,35.70
2022-08-17T14:02:28.405Z,35.50
2022-08-17T14:05:00.820Z,35.30
2022-08-17T14:07:35.632Z,35.20
2022-08-17T14:10:11.878Z,35.10
2022-08-17T14:12:44.079Z,35.00
2022-08-17T14:15:55.601Z,35.00
2022-08-17T14:18:49.879Z,34.90
2022-08-17T14:21:12.112Z,34.70
2022-08-17T14:23:41.302Z,34.60
2022-08-17T14:26:36.671Z,34.50
2022-08-17T14:29:14.996Z,34.50
2022-08-17T14:31:53.295Z,34.40
2022-08-17T14:34:24.475Z,34.30
2022-08-17T14:36:53.918Z,34.30
2022-08-17T14:39:22.846Z,34.20
2022-08-17T14:41:53.194Z,34.10
2022-08-17T14:44:23.736Z,34.00
2022-08-17T14:46:53.101Z,34.00
2022-08-17T14:49:22.025Z,33.90
2022-08-17T14:51:51.445Z,33.80
2022-08-17T14:54:32.830Z,33.70
2022-08-17T14:57:23.530Z,33.70
2022-08-17T14:59:55.623Z,33.60
2022-08-17T15:02:30.422Z,33.50
2022-08-17T15:05:04.197Z,33.40
2022-08-17T15:07:33.422Z,33.40
2022-08-17T15:10:02.782Z,33.30
2022-08-17T15:12:34.070Z,33.30
2022-08-17T15:15:07.424Z,33.20
2022-08-17T15:17:45.186Z,33.10
2022-08-17T15:20:16.833Z,33.10
2022-08-17T15:22:50.046Z,33.00
2022-08-17T15:25:22.322Z,33.00
2022-08-17T15:27:51.808Z,32.90
2022-08-17T15:30:22.250Z,32.80
2022-08-17T15:32:54.970Z,32.80
2022-08-17T15:35:28.325Z,32.70
2022-08-17T15:37:59.203Z,32.70
2022-08-17T15:40:36.734Z,32.60
2022-08-17T15:43:08.034Z,32.50
2022-08-17T15:45:38.461Z,32.40
2022-08-17T15:48:07.685Z,32.30
2022-08-17T15:50:36.997Z,32.30
2022-08-17T15:53:06.038Z,32.20
2022-08-17T15:55:35.533Z,32.10
2022-08-17T15:58:04.629Z,32.10
2022-08-17T16:00:39.777Z,32.00
2022-08-17T16:04:01.141Z,31.90
2022-08-17T16:06:15.175Z,31.80
2022-08-17T16:08:46.345Z,31.70
2022-08-17T16:11:16.548Z,31.60
2022-08-17T16:13:54.532Z,31.60
2022-08-17T16:16:42.175Z,31.50
2022-08-17T16:19:12.633Z,31.40
2022-08-17T16:21:42.724Z,31.40
2022-08-17T16:24:12.838Z,31.30
2022-08-17T16:26:42.801Z,31.20
2022-08-17T16:29:11.972Z,31.10
2022-08-17T16:31:42.038Z,31.10
2022-08-17T16:34:17.834Z,31.00
2022-08-17T16:36:55.763Z,30.90
2022-08-17T16:39:44.003Z,30.80
2022-08-17T16:42:27.368Z,30.70
2022-08-17T16:45:18.701Z,30.70
2022-08-17T16:47:49.251Z,30.50
2022-08-17T16:50:21.700Z,30.40
2022-08-17T16:52:51.325Z,30.30
2022-08-17T16:55:22.447Z,30.20
2022-08-17T16:57:51.585Z,30.00
2022-08-17T17:00:21.187Z,30.00
2022-08-17T17:02:51.222Z,29.90
2022-08-17T17:05:51.426Z,29.80
2022-08-17T17:08:30.571Z,29.60
2022-08-17T17:11:09.084Z,29.50
2022-08-17T17:13:42.489Z,29.50
2022-08-17T17:16:19.573Z,29.30
2022-08-17T17:19:15.382Z,29.20
2022-08-17T17:21:52.194Z,29.20
2022-08-17T17:24:30.114Z,29.10
2022-08-17T17:27:15.450Z,29.00
2022-08-17T17:29:57.479Z,28.90
2022-08-17T17:32:38.039Z,28.80
2022-08-17T17:35:18.225Z,28.80
2022-08-17T17:37:49.371Z,28.70
2022-08-17T17:40:23.282Z,28.70
2022-08-17T17:42:55.281Z,28.60
2022-08-17T17:45:27.448Z,28.50
2022-08-17T17:47:57.086Z,28.40
2022-08-17T17:50:34.669Z,28.40
2022-08-17T17:53:10.296Z,28.30
2022-08-17T17:55:50.516Z,28.20
2022-08-17T17:58:31.479Z,28.20
2022-08-17T18:01:16.800Z,28.10
2022-08-17T18:04:22.883Z,28.10
2022-08-17T18:07:03.940Z,28.00
2022-08-17T18:10:19.764Z,28.00
2022-08-17T18:13:03.817Z,27.90
2022-08-17T18:15:38.632Z,27.80
2022-08-17T18:18:37.869Z,27.80
2022-08-17T18:21:17.108Z,27.70
2022-08-17T18:23:57.982Z,27.60
2022-08-17T18:26:48.544Z,27.60
2022-08-17T18:29:34.573Z,27.60
2022-08-17T18:32:31.397Z,27.50
2022-08-17T18:35:03.684Z,27.50
2022-08-17T18:37:39.598Z,27.40
2022-08-17T18:40:39.021Z,27.40
2022-08-17T18:43:14.087Z,27.40
2022-08-17T18:45:48.122Z,27.40
2022-08-17T18:48:23.926Z,27.30
2022-08-17T18:50:54.637Z,27.30
2022-08-17T18:53:39.171Z,27.30
2022-08-17T18:56:30.686Z,27.20
2022-08-17T18:59:35.030Z,27.20
2022-08-17T19:02:39.107Z,27.10
2022-08-17T19:05:30.634Z,27.10
2022-08-17T19:08:20.067Z,27.00
2022-08-17T19:10:52.705Z,27.00
2022-08-17T19:13:27.021Z,26.90
2022-08-17T19:16:14.612Z,26.80
2022-08-17T19:18:50.040Z,26.80
2022-08-17T19:21:25.079Z,26.70
2022-08-17T19:23:58.862Z,26.60
2022-08-17T19:26:53.561Z,26.60
2022-08-17T19:29:35.644Z,26.60
2022-08-17T19:32:16.319Z,26.50
2022-08-17T19:34:48.396Z,26.50
2022-08-17T19:37:37.539Z,26.40
2022-08-17T19:40:41.906Z,26.40
2022-08-17T19:43:14.868Z,26.40
2022-08-17T19:45:56.404Z,26.40
2022-08-17T19:48:38.339Z,26.30
2022-08-17T19:51:12.655Z,26.30
2022-08-17T19:54:05.026Z,26.30
2022-08-17T19:56:45.089Z,26.30
2022-08-17T19:59:21.277Z,26.20
2022-08-17T20:01:54.544Z,26.20
2022-08-17T20:04:37.519Z,26.20
2022-08-17T20:07:16.560Z,26.20
2022-08-17T20:09:51.697Z,26.10
2022-08-17T20:12:24.894Z,26.10
2022-08-17T20:14:57.485Z,26.10
2022-08-17T20:17:28.797Z,26.10
2022-08-17T20:20:02.882Z,26.10
2022-08-17T20:22:46.736Z,26.10
2022-08-17T20:25:30.381Z,26.10
2022-08-17T20:28:05.588Z,26.10
2022-08-17T20:30:39.304Z,26.10
2022-08-17T20:33:13.136Z,26.00
2022-08-17T20:36:13.393Z,26.00
2022-08-17T20:38:44.024Z,26.00
2022-08-17T20:41:14.028Z,26.00
2022-08-17T20:43:46.594Z,26.10
2022-08-17T20:46:23.116Z,25.90
2022-08-17T20:48:54.171Z,25.90
2022-08-17T20:51:28.913Z,25.90
2022-08-17T20:54:09.887Z,26.00
2022-08-17T20:56:57.534Z,25.80
2022-08-17T20:59:45.448Z,25.80
2022-08-17T21:02:20.514Z,25.80
2022-08-17T21:05:00.675Z,25.70
2022-08-17T21:07:32.997Z,25.70
2022-08-17T21:10:14.905Z,25.70
2022-08-17T21:12:44.902Z,25.60
2022-08-17T21:15:25.280Z,25.60
2022-08-17T21:18:18.558Z,25.60
2022-08-17T21:20:59.030Z,25.60
2022-08-17T21:23:40.551Z,25.60
2022-08-17T21:26:14.033Z,25.60
2022-08-17T21:29:00.578Z,25.50
2022-08-17T21:31:34.353Z,25.50
2022-08-17T21:34:33.558Z,25.30
2022-08-17T21:37:19.797Z,25.40
2022-08-17T21:39:51.984Z,25.30
2022-08-17T21:42:24.467Z,25.20
2022-08-17T21:44:55.128Z,25.20
2022-08-17T21:47:25.565Z,25.20
2022-08-17T21:49:54.557Z,25.10
2022-08-17T21:52:24.482Z,25.10
2022-08-17T21:54:55.890Z,25.00
2022-08-17T21:57:27.590Z,25.00
2022-08-17T21:59:57.662Z,25.00
2022-08-17T22:02:28.206Z,25.00
2022-08-17T22:04:58.425Z,25.10
2022-08-17T22:07:46.524Z,24.90
2022-08-17T22:10:31.326Z,24.90
2022-08-17T22:13:03.524Z,24.90
2022-08-17T22:15:34.873Z,24.90
2022-08-17T22:18:08.208Z,24.90
2022-08-17T22:20:36.812Z,24.90
2022-08-17T22:23:24.783Z,24.80
2022-08-17T22:26:02.620Z,24.80
2022-08-17T22:28:38.437Z,24.80
2022-08-17T22:31:08.682Z,24.80
2022-08-17T22:33:40.903Z,24.70
2022-08-17T22:36:11.155Z,24.70
2022-08-17T22:38:40.612Z,24.70
2022-08-17T22:41:23.396Z,24.70
2022-08-17T22:43:52.383Z,24.70
2022-08-17T22:46:21.744Z,24.60
2022-08-17T22:48:51.838Z,24.70
2022-08-17T22:51:21.594Z,24.70
2022-08-17T22:54:09.900Z,24.70
2022-08-17T22:57:05.647Z,24.70
2022-08-17T22:59:37.002Z,24.60
2022-08-17T23:02:13.832Z,24.60
2022-08-17T23:04:44.101Z,24.60
2022-08-17T23:07:13.015Z,24.50
2022-08-17T23:09:41.530Z,24.50
2022-08-17T23:12:15.172Z,24.60
2022-08-17T23:14:45.732Z,24.60
2022-08-17T23:17:14.782Z,24.50
2022-08-17T23:19:43.442Z,24.50
2022-08-17T23:22:12.206Z,24.50
2022-08-17T23:24:43.954Z,24.40
2022-08-17T23:27:14.262Z,24.50
2022-08-17T23:29:42.963Z,24.50
2022-08-17T23:32:14.047Z,24.40
2022-08-17T23:34:43.326Z,24.40
2022-08-17T23:37:13.153Z,24.40
2022-08-17T23:39:42.590Z,24.40
2022-08-17T23:42:12.480Z,24.40
2022-08-17T23:44:43.901Z,24.40
2022-08-17T23:47:30.801Z,24.30
2022-08-17T23:49:59.493Z,24.30
2022-08-17T23:52:30.717Z,24.30
2022-08-17T23:54:59.602Z,24.20
2022-08-17T23:57:33.530Z,24.20
